Briefing drone pour Marsannay-la-cote

Rechercher une autre localisation

Conditions de vol :


Nous sommes le : Vendredi 26 février 2021
Il est 06:37 UTC (07:37 LT)

Lever de soleil : 05:58 UTC (06:58 LT)
Coucher de soleil : 17:47 UTC (18:47 LT)

Météo

L'essentiel des conditions de vol

VIGILANCE MÉTÉO FRANCE - Côte-dOr (21)
Pas de vigilances particulieres
CARTE TEMSI
CARTES DES FRONTS
METAR de LFSD
LFSD 260630Z AUTO 00000KT CAVOK 01/M01 Q1030

Date d'émission: 26/02/2021
Heure d'émission: 06:30 UTC
Vent: Calme
Visibilité horizontale: > 10 km
Plafond : Plafond et visibilité OK (CAVOK)
Température: 1 °C
Point de rosée: -1 °C
Humidité: 86%
Pression (QNH): 1030 hPa
TAF de LFSD
LFSD 010600Z 0100/0124 CNL

Conditions prévues :

Heure d'émission : Bulletin éffectué le 01 à 00:00 UTC
Prévision : Valide du 01 a 00:00 UTC au 01 a 23:59 UTC
Nuages : à 0ft (0 m)
WEBCAM POUR MARSANNAY-LA-COTE

Réglementation

Voler en sécurité

CARTES AERONAUTIQUE 1/500.000
CARTES VAC (LFSD)
SUP AIP




Chargement des AIP...
NOTAM (MARSANNAY-LA-COTE + Terrain à proximité / FIR )




Chargement des NOTAMS...
CONTACT PREFECTURE 21
Côte-dOr (21) : pref-drone@cote-dor.gouv.fr


Avertissement : Les données mises à disposition sont indicatives. Oxygène Drone ne pourra être tenu responsable de dégâts causés aux biens et aux personnes.